Midland, Nebraska
Current Conditions -  °F | °C
As of 4:53 PM on Saturday 25 Oct 2014 (Local Time) from KGRI Reporting Station
Clear Clear  
Wind Chill: 74°   Ceiling: Unl
Heat Index: 74°   Visibility: 10mi
Dew Point: 42°   Wind: 12mph
Humidity: 32%   Direction: 90°E
Pressure: 30.05"   Gusts: NA
Location:  41.1769°N, 98.1165°W
Report Text: KGRI 252153Z 09010KT 10SM CLR 23/06 A3005 RMK AO2 SLP170 T02330056
Loading
Personal Weather Stations






























Interactive Weather Map
Tropical Storm Tracking
New forecast layout! Learn more

10-Day Weather Forecast

Advertisements
Track Severe Weather on mobile